createdAt,value
2018-07-26T00:01:58.970Z,99917.03
2018-07-26T00:04:33.883Z,99915.59
2018-07-26T00:07:06.927Z,99914.78
2018-07-26T00:09:39.870Z,99911.80
2018-07-26T00:12:13.406Z,99911.81
2018-07-26T00:14:46.209Z,99910.28
2018-07-26T00:17:19.092Z,99916.00
2018-07-26T00:19:53.368Z,99918.14
2018-07-26T00:22:27.158Z,99924.50
2018-07-26T00:25:00.077Z,99924.96
2018-07-26T00:27:33.311Z,99931.13
2018-07-26T00:30:08.200Z,99932.23
2018-07-26T00:32:41.104Z,99930.68
2018-07-26T00:35:14.381Z,99931.26
2018-07-26T00:37:51.460Z,99935.06
2018-07-26T00:40:25.973Z,99932.06
2018-07-26T00:43:02.099Z,99927.37
2018-07-26T00:45:37.928Z,99929.55
2018-07-26T00:48:11.770Z,99931.46
2018-07-26T00:50:45.138Z,99929.45
2018-07-26T00:53:21.107Z,99929.05
2018-07-26T00:55:57.196Z,99926.00
2018-07-26T00:58:30.576Z,99920.14
2018-07-26T01:01:05.375Z,99921.52
2018-07-26T01:03:38.452Z,99923.44
2018-07-26T01:06:12.534Z,99928.22
2018-07-26T01:08:45.893Z,99926.88
2018-07-26T01:11:18.868Z,99921.25
2018-07-26T01:13:53.509Z,99917.37
2018-07-26T01:16:52.196Z,99924.00
2018-07-26T01:19:30.100Z,99921.55
2018-07-26T01:22:05.535Z,99922.94
2018-07-26T01:24:38.462Z,99926.34
2018-07-26T01:27:14.704Z,99925.63
2018-07-26T01:29:49.051Z,99925.61
2018-07-26T01:32:25.239Z,99927.84
2018-07-26T01:34:58.290Z,99926.23
2018-07-26T01:37:33.173Z,99924.56
2018-07-26T01:40:07.090Z,99922.20
2018-07-26T01:43:09.198Z,99926.20
2018-07-26T01:45:43.077Z,99914.91
2018-07-26T01:48:16.278Z,99924.83
2018-07-26T01:50:50.424Z,99923.64
2018-07-26T01:53:23.880Z,99923.44
2018-07-26T01:55:58.197Z,99923.95
2018-07-26T01:58:32.360Z,99922.27
2018-07-26T02:01:07.810Z,99925.35
2018-07-26T02:03:42.357Z,99916.45
2018-07-26T02:06:15.903Z,99915.02
2018-07-26T02:08:48.622Z,99916.87
2018-07-26T02:11:21.502Z,99907.97
2018-07-26T02:13:58.157Z,99907.00
2018-07-26T02:16:31.074Z,99904.64
2018-07-26T02:19:06.804Z,99904.02
2018-07-26T02:21:40.427Z,99905.75
2018-07-26T02:24:13.353Z,99907.50
2018-07-26T02:26:46.665Z,99910.28
2018-07-26T02:29:20.753Z,99909.84
2018-07-26T02:31:55.172Z,99905.99
2018-07-26T02:34:27.937Z,99902.81
2018-07-26T02:37:01.435Z,99908.58
2018-07-26T02:39:34.206Z,99902.98
2018-07-26T02:42:08.426Z,99906.35
2018-07-26T02:44:41.715Z,99902.11
2018-07-26T02:47:14.528Z,99908.23
2018-07-26T02:49:47.257Z,99903.20
2018-07-26T02:52:20.537Z,99910.02
2018-07-26T02:54:53.251Z,99909.84
2018-07-26T02:57:26.353Z,99912.03
2018-07-26T02:59:59.936Z,99907.14
2018-07-26T03:02:34.177Z,99913.50
2018-07-26T03:05:09.367Z,99911.12
2018-07-26T03:07:42.776Z,99914.23
2018-07-26T03:10:15.729Z,99914.51
2018-07-26T03:12:49.130Z,99915.48
2018-07-26T03:15:23.550Z,99919.22
2018-07-26T03:17:58.352Z,99922.45
2018-07-26T03:20:31.471Z,99918.32
2018-07-26T03:23:09.750Z,99923.20
2018-07-26T03:25:44.471Z,99922.92
2018-07-26T03:28:17.479Z,99919.96
2018-07-26T03:30:51.107Z,99918.69
2018-07-26T03:33:27.346Z,99917.81
2018-07-26T03:36:00.121Z,99915.64
2018-07-26T03:38:32.884Z,99922.42
2018-07-26T03:41:06.128Z,99922.30
2018-07-26T03:43:40.441Z,99924.03
2018-07-26T03:46:13.333Z,99918.35
2018-07-26T03:48:50.682Z,99922.64
2018-07-26T03:51:23.558Z,99924.92
2018-07-26T03:53:57.557Z,99925.80
2018-07-26T03:56:31.913Z,99931.74
2018-07-26T03:59:05.064Z,99924.95
2018-07-26T04:01:39.931Z,99926.12
2018-07-26T04:04:13.241Z,99930.89
2018-07-26T04:06:46.637Z,99930.55
2018-07-26T04:09:19.622Z,99927.73
2018-07-26T04:11:54.240Z,99934.39
2018-07-26T04:14:28.266Z,99931.96
2018-07-26T04:17:01.369Z,99937.33
2018-07-26T04:19:36.620Z,99934.45
2018-07-26T04:22:09.460Z,99936.29
2018-07-26T04:24:43.849Z,99938.77
2018-07-26T04:27:18.157Z,99932.89
2018-07-26T04:29:51.635Z,99940.85
2018-07-26T04:32:24.581Z,99944.11
2018-07-26T04:34:57.435Z,99946.33
2018-07-26T04:37:30.687Z,99941.83
2018-07-26T04:40:03.761Z,99945.92
2018-07-26T04:42:36.671Z,99937.75
2018-07-26T04:45:10.057Z,99941.92
2018-07-26T04:47:44.080Z,99940.41
2018-07-26T04:50:20.243Z,99943.72
2018-07-26T04:52:53.880Z,99948.23
2018-07-26T04:55:26.696Z,99947.93
2018-07-26T04:58:02.376Z,99945.06
2018-07-26T05:00:37.809Z,99942.31
2018-07-26T05:03:11.995Z,99946.98
2018-07-26T05:05:44.757Z,99943.59
2018-07-26T05:08:18.779Z,99944.23
2018-07-26T05:10:52.252Z,99945.52
2018-07-26T05:13:25.157Z,99940.14
2018-07-26T05:15:59.276Z,99942.91
2018-07-26T05:18:33.687Z,99942.11
2018-07-26T05:21:07.227Z,99940.58
2018-07-26T05:23:40.813Z,99942.27
2018-07-26T05:26:14.820Z,99943.94
2018-07-26T05:28:49.495Z,99946.21
2018-07-26T05:31:27.987Z,99952.12
2018-07-26T05:34:03.268Z,99951.08
2018-07-26T05:36:37.471Z,99953.80
2018-07-26T05:39:11.596Z,99946.81
2018-07-26T05:41:45.854Z,99951.22
2018-07-26T05:44:23.166Z,99950.45
2018-07-26T05:46:56.093Z,99950.33
2018-07-26T05:49:30.988Z,99948.59
2018-07-26T05:52:06.737Z,99946.72
2018-07-26T05:54:42.451Z,99945.63
2018-07-26T05:57:16.014Z,99949.72
2018-07-26T05:59:49.973Z,99947.30
2018-07-26T06:02:24.501Z,99944.78
2018-07-26T06:05:01.392Z,99946.89
2018-07-26T06:07:35.656Z,99948.50
2018-07-26T06:10:13.061Z,99950.37
2018-07-26T06:12:47.492Z,99950.75
2018-07-26T06:15:21.104Z,99946.42
2018-07-26T06:17:54.353Z,99946.14
2018-07-26T06:20:27.294Z,99946.72
2018-07-26T06:23:01.109Z,99945.59
2018-07-26T06:25:34.496Z,99942.11
2018-07-26T06:28:10.074Z,99946.46
2018-07-26T06:30:44.237Z,99943.42
2018-07-26T06:33:18.267Z,99938.30
2018-07-26T06:35:51.253Z,99932.78
2018-07-26T06:38:26.575Z,99938.31
2018-07-26T06:40:59.714Z,99937.08
2018-07-26T06:43:41.158Z,99932.83
2018-07-26T06:46:14.304Z,99934.30
2018-07-26T06:48:47.638Z,99935.05
2018-07-26T06:51:22.971Z,99932.19
2018-07-26T06:53:56.803Z,99928.40
2018-07-26T06:56:31.596Z,99929.20
2018-07-26T06:59:05.494Z,99929.72
2018-07-26T07:01:38.299Z,99931.63
2018-07-26T07:04:12.960Z,99928.64
2018-07-26T07:06:46.663Z,99927.80
2018-07-26T07:09:20.620Z,99925.30
2018-07-26T07:11:53.881Z,99927.05
2018-07-26T07:14:28.033Z,99927.70
2018-07-26T07:17:03.529Z,99930.56
2018-07-26T07:19:38.023Z,99932.85
2018-07-26T07:22:13.752Z,99932.39
2018-07-26T07:24:47.800Z,99934.67
2018-07-26T07:27:21.695Z,99930.15
2018-07-26T07:30:00.632Z,99926.58
2018-07-26T07:32:42.745Z,99931.96
2018-07-26T07:35:16.142Z,99929.02
2018-07-26T07:37:51.453Z,99930.56
2018-07-26T07:40:25.997Z,99927.80
2018-07-26T07:42:58.941Z,99929.09
2018-07-26T07:45:33.386Z,99932.42
2018-07-26T07:48:08.944Z,99930.34
2018-07-26T07:50:43.397Z,99931.78
2018-07-26T07:53:16.330Z,99928.11
2018-07-26T07:55:49.050Z,99924.80
2018-07-26T07:58:21.980Z,99921.58
2018-07-26T08:00:56.147Z,99921.22
2018-07-26T08:03:30.288Z,99921.57
2018-07-26T08:06:03.089Z,99919.45
2018-07-26T08:08:37.715Z,99920.99
2018-07-26T08:11:12.201Z,99916.59
2018-07-26T08:13:46.054Z,99920.11
2018-07-26T08:16:21.864Z,99923.36
2018-07-26T08:18:56.254Z,99919.17
2018-07-26T08:21:33.253Z,99918.87
2018-07-26T08:24:06.133Z,99914.53
2018-07-26T08:26:40.034Z,99917.15
2018-07-26T08:29:14.086Z,99921.80
2018-07-26T08:31:48.401Z,99922.94
2018-07-26T08:37:03.212Z,99920.66
2018-07-26T08:39:40.681Z,99923.31
2018-07-26T08:42:13.595Z,99917.82
2018-07-26T08:44:46.665Z,99916.19
2018-07-26T08:47:20.471Z,99916.97
2018-07-26T08:49:53.363Z,99914.88
2018-07-26T08:52:28.367Z,99919.34
2018-07-26T08:55:09.821Z,99916.22
2018-07-26T08:57:42.791Z,99917.15
2018-07-26T09:00:19.456Z,99915.53
2018-07-26T09:02:54.000Z,99913.05
2018-07-26T09:05:29.276Z,99917.87
2018-07-26T09:08:03.288Z,99916.84
2018-07-26T09:10:37.048Z,99913.05
2018-07-26T09:13:13.216Z,99914.50
2018-07-26T09:15:46.752Z,99915.02
2018-07-26T09:18:20.874Z,99909.84
2018-07-26T09:20:56.477Z,99916.13
2018-07-26T09:23:32.797Z,99915.53
2018-07-26T09:26:07.136Z,99914.36
2018-07-26T09:28:40.765Z,99909.55
2018-07-26T09:31:13.579Z,99904.36
2018-07-26T09:33:48.177Z,99907.50
2018-07-26T09:36:23.516Z,99904.95
2018-07-26T09:38:56.318Z,99898.48
2018-07-26T09:41:31.391Z,99895.30
2018-07-26T09:44:06.864Z,99893.13
2018-07-26T09:46:40.686Z,99896.61
2018-07-26T09:49:20.316Z,99892.74
2018-07-26T09:51:55.472Z,99893.61
2018-07-26T09:54:29.968Z,99898.91
2018-07-26T09:57:08.467Z,99889.98
2018-07-26T09:59:41.292Z,99893.13
2018-07-26T10:02:14.956Z,99888.67
2018-07-26T10:04:50.772Z,99892.03
2018-07-26T10:07:29.067Z,99893.74
2018-07-26T10:10:10.816Z,99885.31
2018-07-26T10:12:48.749Z,99881.88
2018-07-26T10:15:23.650Z,99882.63
2018-07-26T10:18:00.764Z,99885.58
2018-07-26T10:20:45.739Z,99880.93
2018-07-26T10:23:19.628Z,99884.39
2018-07-26T10:27:14.100Z,99879.36
2018-07-26T10:29:49.064Z,99873.02
2018-07-26T10:32:24.608Z,99872.19
2018-07-26T10:34:57.544Z,99871.00
2018-07-26T10:37:32.692Z,99866.38
2018-07-26T10:40:08.005Z,99867.32
2018-07-26T10:42:41.726Z,99864.52
2018-07-26T10:45:20.589Z,99866.36
2018-07-26T10:48:00.817Z,99858.39
2018-07-26T10:50:37.020Z,99860.19
2018-07-26T10:53:10.654Z,99863.20
2018-07-26T10:55:44.287Z,99860.67
2018-07-26T10:58:21.866Z,99859.55
2018-07-26T11:00:54.806Z,99856.98
2018-07-26T11:03:31.191Z,99853.60
2018-07-26T11:06:05.411Z,99851.39
2018-07-26T11:08:41.358Z,99847.19
2018-07-26T11:11:15.345Z,99841.92
2018-07-26T11:13:49.975Z,99836.22
2018-07-26T11:16:27.653Z,99831.41
2018-07-26T11:19:04.022Z,99835.95
2018-07-26T11:21:39.598Z,99838.90
2018-07-26T11:24:12.814Z,99840.42
2018-07-26T11:26:48.722Z,99829.52
2018-07-26T11:29:23.898Z,99831.28
2018-07-26T11:31:57.682Z,99826.95
2018-07-26T11:34:33.166Z,99825.17
2018-07-26T11:37:08.584Z,99815.77
2018-07-26T11:39:44.809Z,99809.67
2018-07-26T11:42:19.021Z,99820.33
2018-07-26T11:44:55.562Z,99826.99
2018-07-26T11:47:34.728Z,99815.18
2018-07-26T11:50:10.302Z,99811.16
2018-07-26T11:52:43.151Z,99807.16
2018-07-26T11:55:19.748Z,99810.63
2018-07-26T11:57:53.677Z,99811.97
2018-07-26T12:00:29.461Z,99806.98
2018-07-26T12:03:08.806Z,99806.39
2018-07-26T12:05:45.906Z,99800.19
2018-07-26T12:08:22.524Z,99804.70
2018-07-26T12:10:58.552Z,99803.23
2018-07-26T12:13:33.395Z,99805.41
2018-07-26T12:16:08.205Z,99804.74
2018-07-26T12:18:42.119Z,99797.66
2018-07-26T12:21:15.674Z,99797.03
2018-07-26T12:23:51.229Z,99801.44
2018-07-26T12:26:25.197Z,99794.14
2018-07-26T12:28:59.265Z,99793.45
2018-07-26T12:31:34.312Z,99785.20
2018-07-26T12:34:08.948Z,99783.80
2018-07-26T12:36:43.503Z,99786.28
2018-07-26T12:39:18.010Z,99776.98
2018-07-26T12:41:53.325Z,99770.74
2018-07-26T12:44:27.544Z,99767.67
2018-07-26T12:47:02.689Z,99759.83
2018-07-26T12:49:35.618Z,99752.53
2018-07-26T12:52:19.355Z,99752.31
2018-07-26T12:54:53.285Z,99748.67
2018-07-26T12:57:27.727Z,99749.59
2018-07-26T13:00:03.875Z,99746.12
2018-07-26T13:02:40.104Z,99744.74
2018-07-26T13:05:15.606Z,99745.17
2018-07-26T13:07:51.029Z,99738.55
2018-07-26T13:10:25.125Z,99734.19
2018-07-26T13:12:58.033Z,99729.58
2018-07-26T13:15:31.744Z,99732.89
2018-07-26T13:18:06.758Z,99735.98
2018-07-26T13:20:40.998Z,99733.59
2018-07-26T13:23:15.198Z,99730.34
2018-07-26T13:25:49.166Z,99730.97
2018-07-26T13:28:22.769Z,99734.02
2018-07-26T13:30:57.168Z,99732.67
2018-07-26T13:33:33.235Z,99728.81
2018-07-26T13:36:06.409Z,99728.38
2018-07-26T13:38:39.489Z,99725.72
2018-07-26T13:41:13.870Z,99721.14
2018-07-26T13:43:46.926Z,99718.12
2018-07-26T13:46:22.667Z,99718.65
2018-07-26T13:48:57.306Z,99712.59
2018-07-26T13:51:30.454Z,99707.80
2018-07-26T13:54:06.399Z,99703.19
2018-07-26T13:56:42.327Z,99707.11
2018-07-26T13:59:19.059Z,99708.77
2018-07-26T14:01:53.575Z,99707.09
2018-07-26T14:04:28.681Z,99705.88
2018-07-26T14:07:05.373Z,99705.27
2018-07-26T14:09:40.381Z,99706.41
2018-07-26T14:12:15.503Z,99701.66
2018-07-26T14:14:49.488Z,99695.13
2018-07-26T14:17:23.955Z,99694.66
2018-07-26T14:19:57.965Z,99691.45
2018-07-26T14:22:32.864Z,99689.64
2018-07-26T14:25:07.676Z,99684.45
2018-07-26T14:27:43.277Z,99682.52
2018-07-26T14:30:19.381Z,99686.61
2018-07-26T14:32:54.860Z,99677.80
2018-07-26T14:35:37.452Z,99680.69
2018-07-26T14:38:11.748Z,99676.61
2018-07-26T14:40:46.298Z,99664.30
2018-07-26T14:43:20.785Z,99667.50
2018-07-26T14:45:53.759Z,99662.92
2018-07-26T14:48:31.453Z,99664.64
2018-07-26T14:51:08.362Z,99665.26
2018-07-26T14:53:43.880Z,99668.64
2018-07-26T14:56:20.917Z,99670.41
2018-07-26T14:58:56.237Z,99667.08
2018-07-26T15:01:32.751Z,99668.59
2018-07-26T15:04:06.544Z,99671.34
2018-07-26T15:06:49.513Z,99668.69
2018-07-26T15:09:23.478Z,99675.67
2018-07-26T15:11:58.337Z,99675.67
2018-07-26T15:14:33.117Z,99678.70
2018-07-26T15:17:08.550Z,99681.45
2018-07-26T15:19:42.000Z,99689.34
2018-07-26T15:22:14.877Z,99691.70
2018-07-26T15:24:51.836Z,99689.89
2018-07-26T15:27:27.192Z,99688.46
2018-07-26T15:30:00.254Z,99691.38
2018-07-26T15:32:39.568Z,99691.59
2018-07-26T15:35:13.561Z,99686.45
2018-07-26T15:37:47.451Z,99686.44
2018-07-26T15:40:21.293Z,99687.31
2018-07-26T15:42:55.279Z,99686.34
2018-07-26T15:45:28.622Z,99687.47
2018-07-26T15:48:05.465Z,99684.44
2018-07-26T15:50:39.903Z,99678.88
2018-07-26T15:53:14.578Z,99674.55
2018-07-26T15:55:51.058Z,99663.83
2018-07-26T15:58:25.206Z,99668.15
2018-07-26T16:00:58.708Z,99664.45
2018-07-26T16:03:34.397Z,99668.23
2018-07-26T16:06:19.904Z,99662.62
2018-07-26T16:08:53.907Z,99662.88
2018-07-26T16:11:28.022Z,99659.13
2018-07-26T16:14:03.897Z,99666.14
2018-07-26T16:16:38.733Z,99667.30
2018-07-26T16:19:12.754Z,99660.67
2018-07-26T16:21:47.584Z,99658.77
2018-07-26T16:24:22.904Z,99656.45
2018-07-26T16:26:58.343Z,99654.81
2018-07-26T16:29:33.890Z,99650.14
2018-07-26T16:32:08.749Z,99646.70
2018-07-26T16:34:46.760Z,99641.08
2018-07-26T16:37:20.598Z,99639.85
2018-07-26T16:39:53.600Z,99636.23
2018-07-26T16:42:27.509Z,99634.86
2018-07-26T16:45:04.865Z,99630.88
2018-07-26T16:47:38.527Z,99637.91
2018-07-26T16:50:12.229Z,99637.19
2018-07-26T16:52:46.884Z,99639.06
2018-07-26T16:55:23.143Z,99637.36
2018-07-26T16:57:58.365Z,99636.63
2018-07-26T17:00:34.097Z,99632.48
2018-07-26T17:03:09.475Z,99632.59
2018-07-26T17:05:44.186Z,99637.73
2018-07-26T17:08:16.985Z,99636.08
2018-07-26T17:10:50.524Z,99634.63
2018-07-26T17:13:24.926Z,99633.88
2018-07-26T17:15:58.538Z,99632.12
2018-07-26T17:18:32.113Z,99637.36
2018-07-26T17:21:07.523Z,99644.00
2018-07-26T17:23:43.895Z,99648.17
2018-07-26T17:26:19.782Z,99647.93
2018-07-26T17:29:03.830Z,99648.07
2018-07-26T17:31:42.609Z,99644.82
2018-07-26T17:34:17.175Z,99655.17
2018-07-26T17:36:51.700Z,99660.30
2018-07-26T17:39:27.105Z,99656.90
2018-07-26T17:42:00.646Z,99656.44
2018-07-26T17:44:33.466Z,99648.77
2018-07-26T17:47:15.852Z,99652.98
2018-07-26T17:49:50.317Z,99632.80
2018-07-26T17:52:25.004Z,99643.29
2018-07-26T17:55:00.692Z,99645.17
2018-07-26T17:57:36.322Z,99645.91
2018-07-26T18:00:15.085Z,99647.64
2018-07-26T18:02:49.677Z,99645.66
2018-07-26T18:05:27.460Z,99638.44
2018-07-26T18:08:01.815Z,99648.03
2018-07-26T18:10:34.600Z,99650.79
2018-07-26T18:13:11.360Z,99652.20
2018-07-26T18:15:46.230Z,99659.67
2018-07-26T18:18:19.591Z,99651.63
2018-07-26T18:20:54.218Z,99653.70
2018-07-26T18:23:27.748Z,99651.63
2018-07-26T18:26:02.148Z,99648.64
2018-07-26T18:28:35.045Z,99649.93
2018-07-26T18:31:12.086Z,99649.80
2018-07-26T18:33:49.336Z,99650.04
2018-07-26T18:36:23.068Z,99659.34
2018-07-26T18:38:55.898Z,99658.92
2018-07-26T18:41:30.845Z,99659.19
2018-07-26T18:44:04.140Z,99660.80
2018-07-26T18:46:41.277Z,99665.55
2018-07-26T18:49:15.342Z,99666.95
2018-07-26T18:51:48.253Z,99679.36
2018-07-26T18:54:22.306Z,99689.30
2018-07-26T18:56:55.929Z,99697.25
2018-07-26T18:59:29.814Z,99707.98
2018-07-26T19:02:02.811Z,99709.38
2018-07-26T19:04:37.109Z,99712.45
2018-07-26T19:07:11.120Z,99717.06
2018-07-26T19:09:43.995Z,99718.81
2018-07-26T19:12:17.224Z,99721.98
2018-07-26T19:14:50.872Z,99724.69
2018-07-26T19:17:24.681Z,99724.66
2018-07-26T19:19:59.845Z,99726.86
2018-07-26T19:22:33.535Z,99731.61
2018-07-26T19:25:08.771Z,99736.49
2018-07-26T19:27:43.953Z,99738.91
2018-07-26T19:30:17.545Z,99743.67
2018-07-26T19:32:50.524Z,99742.59
2018-07-26T19:35:27.522Z,99749.33
2018-07-26T19:38:01.877Z,99750.02
2018-07-26T19:40:37.294Z,99751.05
2018-07-26T19:43:13.870Z,99751.70
2018-07-26T19:45:51.141Z,99755.09
2018-07-26T19:48:26.337Z,99753.96
2018-07-26T19:50:59.776Z,99759.39
2018-07-26T19:53:35.400Z,99764.80
2018-07-26T19:56:15.574Z,99758.39
2018-07-26T19:58:51.728Z,99765.11
2018-07-26T20:01:27.206Z,99775.13
2018-07-26T20:04:03.176Z,99763.41
2018-07-26T20:06:37.710Z,99768.25
2018-07-26T20:09:11.833Z,99774.02
2018-07-26T20:11:46.925Z,99775.95
2018-07-26T20:14:23.406Z,99776.93
2018-07-26T20:16:59.937Z,99775.89
2018-07-26T20:19:36.521Z,99775.13
2018-07-26T20:22:10.887Z,99773.09
2018-07-26T20:24:44.212Z,99772.43
2018-07-26T20:27:18.526Z,99773.88
2018-07-26T20:29:51.358Z,99771.15
2018-07-26T20:32:26.575Z,99768.97
2018-07-26T20:35:00.156Z,99765.83
2018-07-26T20:37:37.859Z,99764.99
2018-07-26T20:40:15.262Z,99766.88
2018-07-26T20:42:50.477Z,99765.69
2018-07-26T20:45:27.181Z,99763.05
2018-07-26T20:48:00.240Z,99766.99
2018-07-26T20:50:33.203Z,99768.89
2018-07-26T20:53:06.679Z,99773.77
2018-07-26T20:55:41.566Z,99778.13
2018-07-26T20:58:18.027Z,99783.16
2018-07-26T21:00:52.143Z,99784.37
2018-07-26T21:03:26.279Z,99787.97
2018-07-26T21:06:06.215Z,99782.81
2018-07-26T21:08:40.800Z,99791.67
2018-07-26T21:11:21.816Z,99791.53
2018-07-26T21:13:57.716Z,99789.06
2018-07-26T21:16:36.569Z,99794.50
2018-07-26T21:19:16.615Z,99799.55
2018-07-26T21:21:57.847Z,99804.85
2018-07-26T21:24:40.112Z,99807.82
2018-07-26T21:27:26.432Z,99805.78
2018-07-26T21:30:08.513Z,99809.28
2018-07-26T21:32:54.695Z,99810.65
2018-07-26T21:35:33.098Z,99811.25
2018-07-26T21:38:14.676Z,99812.41
2018-07-26T21:40:53.675Z,99809.12
2018-07-26T21:43:27.655Z,99808.77
2018-07-26T21:46:05.107Z,99809.36
2018-07-26T21:48:42.521Z,99813.45
2018-07-26T21:51:22.040Z,99816.18
2018-07-26T21:53:56.707Z,99818.94
2018-07-26T21:56:31.230Z,99819.28
2018-07-26T21:59:05.744Z,99821.98
2018-07-26T22:01:40.321Z,99817.83
2018-07-26T22:04:14.529Z,99820.03
2018-07-26T22:06:49.507Z,99815.94
2018-07-26T22:09:24.650Z,99822.55
2018-07-26T22:12:03.087Z,99825.55
2018-07-26T22:14:37.633Z,99826.14
2018-07-26T22:17:11.549Z,99831.09
2018-07-26T22:19:47.685Z,99832.71
2018-07-26T22:22:24.151Z,99827.34
2018-07-26T22:25:05.666Z,99829.66
2018-07-26T22:27:43.651Z,99831.77
2018-07-26T22:30:18.997Z,99829.30
2018-07-26T22:32:54.369Z,99827.78
2018-07-26T22:35:28.253Z,99829.05
2018-07-26T22:38:01.617Z,99829.06
2018-07-26T22:40:36.283Z,99829.12
2018-07-26T22:43:13.553Z,99825.49
2018-07-26T22:45:51.907Z,99828.97
2018-07-26T22:48:24.768Z,99826.74
2018-07-26T22:50:58.796Z,99827.69
2018-07-26T22:53:32.758Z,99828.43
2018-07-26T22:56:05.872Z,99826.92
2018-07-26T22:58:39.728Z,99827.69
2018-07-26T23:01:15.796Z,99828.78
2018-07-26T23:03:48.620Z,99825.14
2018-07-26T23:06:28.245Z,99826.25
2018-07-26T23:09:03.693Z,99831.02
2018-07-26T23:11:41.211Z,99827.25
2018-07-26T23:14:14.164Z,99827.83
2018-07-26T23:16:48.771Z,99823.92
2018-07-26T23:19:22.380Z,99825.78
2018-07-26T23:21:56.133Z,99822.97
2018-07-26T23:24:30.195Z,99825.42
2018-07-26T23:27:04.622Z,99824.91
2018-07-26T23:29:37.381Z,99818.37
2018-07-26T23:32:12.701Z,99820.50
2018-07-26T23:34:46.319Z,99818.96
2018-07-26T23:37:20.508Z,99819.16
2018-07-26T23:39:54.933Z,99813.95
2018-07-26T23:42:28.494Z,99816.44
2018-07-26T23:45:04.630Z,99815.84
2018-07-26T23:47:45.789Z,99814.91
2018-07-26T23:50:23.501Z,99816.47
2018-07-26T23:53:16.796Z,99817.81
2018-07-26T23:55:52.880Z,99822.12
2018-07-26T23:58:27.141Z,99822.39
